sensor_id;sensor_type;location;lat;lon;timestamp;P1;durP1;ratioP1;P2;durP2;ratioP2
64714;SDS011;51144;53.002;6.506;2022-10-17T00:00:49;12.80;;;1.95;;
64714;SDS011;51144;53.002;6.506;2022-10-17T00:03:15;7.93;;;1.13;;
64714;SDS011;51144;53.002;6.506;2022-10-17T00:05:42;8.48;;;1.08;;
64714;SDS011;51144;53.002;6.506;2022-10-17T00:08:09;9.65;;;1.05;;
64714;SDS011;51144;53.002;6.506;2022-10-17T00:10:36;12.20;;;1.77;;
64714;SDS011;51144;53.002;6.506;2022-10-17T00:13:02;11.13;;;1.52;;
64714;SDS011;51144;53.002;6.506;2022-10-17T00:15:27;8.60;;;1.05;;
64714;SDS011;51144;53.002;6.506;2022-10-17T00:17:53;9.48;;;1.30;;
64714;SDS011;51144;53.002;6.506;2022-10-17T00:20:18;9.35;;;1.15;;
64714;SDS011;51144;53.002;6.506;2022-10-17T00:22:44;8.85;;;1.77;;
64714;SDS011;51144;53.002;6.506;2022-10-17T00:25:10;8.18;;;1.25;;
64714;SDS011;51144;53.002;6.506;2022-10-17T00:27:37;16.30;;;1.73;;
64714;SDS011;51144;53.002;6.506;2022-10-17T00:30:04;6.13;;;0.93;;
64714;SDS011;51144;53.002;6.506;2022-10-17T00:32:30;9.43;;;1.55;;
64714;SDS011;51144;53.002;6.506;2022-10-17T00:34:56;8.55;;;1.20;;
64714;SDS011;51144;53.002;6.506;2022-10-17T00:37:22;11.02;;;1.13;;
64714;SDS011;51144;53.002;6.506;2022-10-17T00:39:48;6.47;;;1.00;;
64714;SDS011;51144;53.002;6.506;2022-10-17T00:42:14;9.15;;;1.35;;
64714;SDS011;51144;53.002;6.506;2022-10-17T00:47:07;11.35;;;1.55;;
64714;SDS011;51144;53.002;6.506;2022-10-17T00:49:35;8.05;;;1.27;;
64714;SDS011;51144;53.002;6.506;2022-10-17T00:52:04;7.60;;;1.58;;
64714;SDS011;51144;53.002;6.506;2022-10-17T00:54:35;6.60;;;1.10;;
64714;SDS011;51144;53.002;6.506;2022-10-17T00:57:04;9.70;;;1.23;;
64714;SDS011;51144;53.002;6.506;2022-10-17T00:59:31;5.95;;;1.38;;
64714;SDS011;51144;53.002;6.506;2022-10-17T01:02:01;11.05;;;1.42;;
64714;SDS011;51144;53.002;6.506;2022-10-17T01:04:29;7.55;;;1.20;;
64714;SDS011;51144;53.002;6.506;2022-10-17T01:06:55;10.65;;;1.15;;
64714;SDS011;51144;53.002;6.506;2022-10-17T01:09:21;7.43;;;1.20;;
64714;SDS011;51144;53.002;6.506;2022-10-17T01:11:49;8.38;;;1.80;;
64714;SDS011;51144;53.002;6.506;2022-10-17T01:14:27;6.13;;;1.42;;
64714;SDS011;51144;53.002;6.506;2022-10-17T01:17:10;6.85;;;1.50;;
64714;SDS011;51144;53.002;6.506;2022-10-17T01:22:32;7.22;;;1.33;;
64714;SDS011;51144;53.002;6.506;2022-10-17T01:28:14;3.58;;;0.88;;
64714;SDS011;51144;53.002;6.506;2022-10-17T01:31:38;8.95;;;1.25;;
64714;SDS011;51144;53.002;6.506;2022-10-17T01:34:27;12.88;;;1.70;;
64714;SDS011;51144;53.002;6.506;2022-10-17T01:37:35;8.48;;;1.55;;
64714;SDS011;51144;53.002;6.506;2022-10-17T01:40:06;7.80;;;1.60;;
64714;SDS011;51144;53.002;6.506;2022-10-17T01:42:36;9.65;;;1.23;;
64714;SDS011;51144;53.002;6.506;2022-10-17T01:45:09;7.28;;;0.95;;
64714;SDS011;51144;53.002;6.506;2022-10-17T01:47:55;4.25;;;1.00;;
64714;SDS011;51144;53.002;6.506;2022-10-17T01:50:27;12.43;;;1.75;;
64714;SDS011;51144;53.002;6.506;2022-10-17T01:52:58;7.72;;;1.73;;
64714;SDS011;51144;53.002;6.506;2022-10-17T01:55:32;7.18;;;1.50;;
64714;SDS011;51144;53.002;6.506;2022-10-17T01:58:06;5.55;;;1.08;;
64714;SDS011;51144;53.002;6.506;2022-10-17T02:00:41;9.25;;;2.33;;
64714;SDS011;51144;53.002;6.506;2022-10-17T02:03:09;4.70;;;1.73;;
64714;SDS011;51144;53.002;6.506;2022-10-17T02:05:39;10.23;;;1.40;;
64714;SDS011;51144;53.002;6.506;2022-10-17T02:08:06;4.05;;;1.10;;
64714;SDS011;51144;53.002;6.506;2022-10-17T02:19:12;5.50;;;1.65;;
64714;SDS011;51144;53.002;6.506;2022-10-17T02:22:09;7.18;;;1.63;;
64714;SDS011;51144;53.002;6.506;2022-10-17T02:27:53;7.35;;;1.95;;
64714;SDS011;51144;53.002;6.506;2022-10-17T02:33:11;5.32;;;2.30;;
64714;SDS011;51144;53.002;6.506;2022-10-17T02:35:43;8.82;;;1.58;;
64714;SDS011;51144;53.002;6.506;2022-10-17T02:38:13;4.60;;;2.00;;
64714;SDS011;51144;53.002;6.506;2022-10-17T02:40:40;5.88;;;2.28;;
64714;SDS011;51144;53.002;6.506;2022-10-17T02:43:07;8.13;;;2.25;;
64714;SDS011;51144;53.002;6.506;2022-10-17T02:45:32;5.57;;;1.95;;
64714;SDS011;51144;53.002;6.506;2022-10-17T02:48:11;8.13;;;3.00;;
64714;SDS011;51144;53.002;6.506;2022-10-17T02:53:45;6.47;;;2.88;;
64714;SDS011;51144;53.002;6.506;2022-10-17T02:56:25;10.02;;;2.72;;
64714;SDS011;51144;53.002;6.506;2022-10-17T02:58:56;6.97;;;2.55;;
64714;SDS011;51144;53.002;6.506;2022-10-17T03:01:24;8.98;;;3.28;;
64714;SDS011;51144;53.002;6.506;2022-10-17T03:03:50;8.75;;;3.85;;
64714;SDS011;51144;53.002;6.506;2022-10-17T03:06:16;9.20;;;2.70;;
64714;SDS011;51144;53.002;6.506;2022-10-17T03:08:41;11.63;;;4.05;;
64714;SDS011;51144;53.002;6.506;2022-10-17T03:11:07;7.07;;;4.15;;
64714;SDS011;51144;53.002;6.506;2022-10-17T03:13:33;7.50;;;4.43;;
64714;SDS011;51144;53.002;6.506;2022-10-17T03:15:58;6.05;;;4.60;;
64714;SDS011;51144;53.002;6.506;2022-10-17T03:18:24;5.95;;;4.60;;
64714;SDS011;51144;53.002;6.506;2022-10-17T03:20:49;7.40;;;4.70;;
64714;SDS011;51144;53.002;6.506;2022-10-17T03:23:15;6.00;;;4.55;;
64714;SDS011;51144;53.002;6.506;2022-10-17T03:25:40;9.27;;;5.70;;
64714;SDS011;51144;53.002;6.506;2022-10-17T03:28:06;7.43;;;5.68;;
64714;SDS011;51144;53.002;6.506;2022-10-17T03:30:36;8.45;;;5.50;;
64714;SDS011;51144;53.002;6.506;2022-10-17T03:33:02;10.90;;;5.93;;
64714;SDS011;51144;53.002;6.506;2022-10-17T03:35:28;9.68;;;5.88;;
64714;SDS011;51144;53.002;6.506;2022-10-17T03:37:54;13.93;;;6.72;;
64714;SDS011;51144;53.002;6.506;2022-10-17T03:40:20;10.20;;;7.53;;
64714;SDS011;51144;53.002;6.506;2022-10-17T03:42:45;9.02;;;7.00;;
64714;SDS011;51144;53.002;6.506;2022-10-17T03:45:11;8.30;;;7.03;;
64714;SDS011;51144;53.002;6.506;2022-10-17T03:47:37;7.82;;;7.05;;
64714;SDS011;51144;53.002;6.506;2022-10-17T03:50:02;7.20;;;6.60;;
64714;SDS011;51144;53.002;6.506;2022-10-17T03:52:28;9.93;;;7.40;;
64714;SDS011;51144;53.002;6.506;2022-10-17T03:54:54;9.13;;;6.75;;
64714;SDS011;51144;53.002;6.506;2022-10-17T03:57:19;12.48;;;7.80;;
64714;SDS011;51144;53.002;6.506;2022-10-17T03:59:45;8.65;;;7.53;;
64714;SDS011;51144;53.002;6.506;2022-10-17T04:02:11;10.02;;;9.05;;
64714;SDS011;51144;53.002;6.506;2022-10-17T04:04:36;11.82;;;8.43;;
64714;SDS011;51144;53.002;6.506;2022-10-17T04:07:02;10.98;;;8.70;;
64714;SDS011;51144;53.002;6.506;2022-10-17T04:09:27;9.35;;;8.23;;
64714;SDS011;51144;53.002;6.506;2022-10-17T04:11:53;10.57;;;9.52;;
64714;SDS011;51144;53.002;6.506;2022-10-17T04:14:18;13.05;;;10.23;;
64714;SDS011;51144;53.002;6.506;2022-10-17T04:16:44;12.13;;;9.32;;
64714;SDS011;51144;53.002;6.506;2022-10-17T04:19:11;11.20;;;9.68;;
64714;SDS011;51144;53.002;6.506;2022-10-17T04:21:37;11.23;;;9.70;;
64714;SDS011;51144;53.002;6.506;2022-10-17T04:24:03;13.18;;;9.80;;
64714;SDS011;51144;53.002;6.506;2022-10-17T04:26:29;11.38;;;9.80;;
64714;SDS011;51144;53.002;6.506;2022-10-17T04:28:54;14.15;;;11.02;;
64714;SDS011;51144;53.002;6.506;2022-10-17T04:31:20;14.10;;;11.23;;
64714;SDS011;51144;53.002;6.506;2022-10-17T04:33:46;13.98;;;10.45;;
64714;SDS011;51144;53.002;6.506;2022-10-17T04:36:13;12.68;;;10.88;;
64714;SDS011;51144;53.002;6.506;2022-10-17T04:38:40;12.00;;;10.80;;
64714;SDS011;51144;53.002;6.506;2022-10-17T04:41:07;12.30;;;11.20;;
64714;SDS011;51144;53.002;6.506;2022-10-17T04:43:35;13.27;;;11.90;;
64714;SDS011;51144;53.002;6.506;2022-10-17T04:46:04;12.05;;;10.90;;
64714;SDS011;51144;53.002;6.506;2022-10-17T04:48:34;12.85;;;11.50;;
64714;SDS011;51144;53.002;6.506;2022-10-17T04:51:00;13.05;;;11.48;;
64714;SDS011;51144;53.002;6.506;2022-10-17T04:53:32;14.00;;;11.25;;
64714;SDS011;51144;53.002;6.506;2022-10-17T04:56:00;14.20;;;12.27;;
64714;SDS011;51144;53.002;6.506;2022-10-17T04:58:31;13.25;;;12.00;;
64714;SDS011;51144;53.002;6.506;2022-10-17T05:00:56;14.35;;;11.70;;
64714;SDS011;51144;53.002;6.506;2022-10-17T05:03:22;13.02;;;11.63;;
64714;SDS011;51144;53.002;6.506;2022-10-17T05:05:47;12.93;;;11.60;;
64714;SDS011;51144;53.002;6.506;2022-10-17T05:08:13;13.32;;;12.00;;
64714;SDS011;51144;53.002;6.506;2022-10-17T05:10:39;14.80;;;13.00;;
64714;SDS011;51144;53.002;6.506;2022-10-17T05:13:07;14.02;;;12.55;;
64714;SDS011;51144;53.002;6.506;2022-10-17T05:15:33;14.32;;;12.88;;
64714;SDS011;51144;53.002;6.506;2022-10-17T05:17:59;13.48;;;11.82;;
64714;SDS011;51144;53.002;6.506;2022-10-17T05:20:25;14.65;;;11.45;;
64714;SDS011;51144;53.002;6.506;2022-10-17T05:22:51;13.23;;;11.80;;
64714;SDS011;51144;53.002;6.506;2022-10-17T05:25:17;15.88;;;12.68;;
64714;SDS011;51144;53.002;6.506;2022-10-17T05:27:43;15.63;;;12.30;;
64714;SDS011;51144;53.002;6.506;2022-10-17T05:30:09;14.77;;;11.95;;
64714;SDS011;51144;53.002;6.506;2022-10-17T05:32:35;13.80;;;12.63;;
64714;SDS011;51144;53.002;6.506;2022-10-17T05:35:01;14.45;;;12.95;;
64714;SDS011;51144;53.002;6.506;2022-10-17T05:37:28;16.30;;;12.35;;
64714;SDS011;51144;53.002;6.506;2022-10-17T05:39:54;15.73;;;12.88;;
64714;SDS011;51144;53.002;6.506;2022-10-17T05:42:20;15.50;;;13.40;;
64714;SDS011;51144;53.002;6.506;2022-10-17T05:44:46;13.80;;;12.48;;
64714;SDS011;51144;53.002;6.506;2022-10-17T05:47:11;17.77;;;13.07;;
64714;SDS011;51144;53.002;6.506;2022-10-17T05:49:37;20.92;;;12.80;;
64714;SDS011;51144;53.002;6.506;2022-10-17T11:17:39;21.40;;;16.08;;
64714;SDS011;51144;53.002;6.506;2022-10-17T11:27:36;23.75;;;19.85;;
64714;SDS011;51144;53.002;6.506;2022-10-17T11:30:02;23.42;;;17.58;;
64714;SDS011;51144;53.002;6.506;2022-10-17T11:42:37;22.17;;;16.63;;
64714;SDS011;51144;53.002;6.506;2022-10-17T11:45:15;20.58;;;16.23;;
64714;SDS011;51144;53.002;6.506;2022-10-17T11:47:44;20.50;;;14.80;;
64714;SDS011;51144;53.002;6.506;2022-10-17T11:53:00;17.02;;;14.05;;
64714;SDS011;51144;53.002;6.506;2022-10-17T11:55:32;20.93;;;14.97;;
64714;SDS011;51144;53.002;6.506;2022-10-17T12:00:59;17.48;;;14.27;;
64714;SDS011;51144;53.002;6.506;2022-10-17T12:09:30;14.18;;;11.18;;
64714;SDS011;51144;53.002;6.506;2022-10-17T12:12:02;12.48;;;10.45;;
64714;SDS011;51144;53.002;6.506;2022-10-17T12:14:47;11.48;;;10.27;;
64714;SDS011;51144;53.002;6.506;2022-10-17T12:22:48;11.38;;;9.48;;
64714;SDS011;51144;53.002;6.506;2022-10-17T12:25:17;14.02;;;9.27;;
64714;SDS011;51144;53.002;6.506;2022-10-17T12:27:45;12.23;;;8.88;;
64714;SDS011;51144;53.002;6.506;2022-10-17T12:30:18;13.20;;;8.77;;
64714;SDS011;51144;53.002;6.506;2022-10-17T12:35:51;10.40;;;8.52;;
64714;SDS011;51144;53.002;6.506;2022-10-17T12:54:42;6.22;;;1.63;;
64714;SDS011;51144;53.002;6.506;2022-10-17T12:57:29;3.28;;;1.85;;
64714;SDS011;51144;53.002;6.506;2022-10-17T13:00:13;4.50;;;2.22;;
64714;SDS011;51144;53.002;6.506;2022-10-17T13:02:42;3.53;;;2.35;;
64714;SDS011;51144;53.002;6.506;2022-10-17T13:05:14;5.40;;;2.38;;
64714;SDS011;51144;53.002;6.506;2022-10-17T13:07:53;6.20;;;2.85;;
64714;SDS011;51144;53.002;6.506;2022-10-17T13:10:22;4.32;;;2.80;;
64714;SDS011;51144;53.002;6.506;2022-10-17T13:12:50;5.93;;;3.25;;
64714;SDS011;51144;53.002;6.506;2022-10-17T13:15:20;6.55;;;3.38;;
64714;SDS011;51144;53.002;6.506;2022-10-17T13:17:54;3.70;;;3.17;;
64714;SDS011;51144;53.002;6.506;2022-10-17T13:20:21;3.75;;;2.92;;
64714;SDS011;51144;53.002;6.506;2022-10-17T13:22:49;4.38;;;3.47;;
64714;SDS011;51144;53.002;6.506;2022-10-17T13:25:17;6.07;;;2.97;;
64714;SDS011;51144;53.002;6.506;2022-10-17T13:27:43;5.60;;;3.30;;
64714;SDS011;51144;53.002;6.506;2022-10-17T13:32:52;5.28;;;3.15;;
64714;SDS011;51144;53.002;6.506;2022-10-17T13:35:22;9.27;;;2.72;;
64714;SDS011;51144;53.002;6.506;2022-10-17T13:37:54;5.15;;;2.47;;
64714;SDS011;51144;53.002;6.506;2022-10-17T13:40:24;6.00;;;3.00;;
64714;SDS011;51144;53.002;6.506;2022-10-17T13:42:52;7.30;;;3.42;;
64714;SDS011;51144;53.002;6.506;2022-10-17T13:47:55;3.50;;;1.77;;
64714;SDS011;51144;53.002;6.506;2022-10-17T13:50:30;3.17;;;1.50;;
64714;SDS011;51144;53.002;6.506;2022-10-17T13:53:07;4.32;;;1.80;;
64714;SDS011;51144;53.002;6.506;2022-10-17T13:56:01;4.22;;;2.05;;
64714;SDS011;51144;53.002;6.506;2022-10-17T13:58:42;3.35;;;2.17;;
64714;SDS011;51144;53.002;6.506;2022-10-17T14:01:10;6.55;;;2.08;;
64714;SDS011;51144;53.002;6.506;2022-10-17T14:03:37;5.50;;;1.90;;
64714;SDS011;51144;53.002;6.506;2022-10-17T14:06:06;4.30;;;2.08;;
64714;SDS011;51144;53.002;6.506;2022-10-17T14:08:35;5.63;;;2.90;;
64714;SDS011;51144;53.002;6.506;2022-10-17T14:11:11;3.95;;;2.40;;
64714;SDS011;51144;53.002;6.506;2022-10-17T14:13:39;4.25;;;2.03;;
64714;SDS011;51144;53.002;6.506;2022-10-17T14:16:05;5.35;;;2.45;;
64714;SDS011;51144;53.002;6.506;2022-10-17T14:18:33;5.72;;;2.50;;
64714;SDS011;51144;53.002;6.506;2022-10-17T14:21:00;3.72;;;1.77;;
64714;SDS011;51144;53.002;6.506;2022-10-17T14:23:34;3.47;;;1.60;;
64714;SDS011;51144;53.002;6.506;2022-10-17T14:26:03;3.17;;;1.98;;
64714;SDS011;51144;53.002;6.506;2022-10-17T14:28:35;5.78;;;2.35;;
64714;SDS011;51144;53.002;6.506;2022-10-17T14:31:34;4.70;;;1.90;;
64714;SDS011;51144;53.002;6.506;2022-10-17T14:33:55;7.95;;;1.55;;
64714;SDS011;51144;53.002;6.506;2022-10-17T14:36:29;6.35;;;1.10;;
64714;SDS011;51144;53.002;6.506;2022-10-17T14:38:56;5.63;;;1.10;;
64714;SDS011;51144;53.002;6.506;2022-10-17T14:41:26;6.72;;;1.30;;
64714;SDS011;51144;53.002;6.506;2022-10-17T14:44:00;4.18;;;1.63;;
64714;SDS011;51144;53.002;6.506;2022-10-17T14:46:30;5.15;;;1.58;;
64714;SDS011;51144;53.002;6.506;2022-10-17T14:49:06;5.22;;;1.33;;
64714;SDS011;51144;53.002;6.506;2022-10-17T14:51:39;9.27;;;1.27;;
64714;SDS011;51144;53.002;6.506;2022-10-17T14:54:24;2.28;;;0.50;;
64714;SDS011;51144;53.002;6.506;2022-10-17T14:56:51;4.53;;;0.65;;
64714;SDS011;51144;53.002;6.506;2022-10-17T14:59:18;1.75;;;0.45;;
64714;SDS011;51144;53.002;6.506;2022-10-17T15:01:48;2.22;;;0.70;;
64714;SDS011;51144;53.002;6.506;2022-10-17T15:04:14;3.83;;;0.40;;
64714;SDS011;51144;53.002;6.506;2022-10-17T15:06:40;2.38;;;0.60;;
64714;SDS011;51144;53.002;6.506;2022-10-17T15:09:06;1.92;;;0.60;;
64714;SDS011;51144;53.002;6.506;2022-10-17T15:11:31;5.30;;;0.63;;
64714;SDS011;51144;53.002;6.506;2022-10-17T15:13:57;6.22;;;1.13;;
64714;SDS011;51144;53.002;6.506;2022-10-17T15:16:29;4.75;;;0.80;;
64714;SDS011;51144;53.002;6.506;2022-10-17T15:18:55;1.80;;;0.77;;
64714;SDS011;51144;53.002;6.506;2022-10-17T15:21:22;4.28;;;1.30;;
64714;SDS011;51144;53.002;6.506;2022-10-17T15:23:49;4.13;;;0.77;;
64714;SDS011;51144;53.002;6.506;2022-10-17T15:26:19;2.03;;;0.80;;
64714;SDS011;51144;53.002;6.506;2022-10-17T15:28:46;3.83;;;0.95;;
64714;SDS011;51144;53.002;6.506;2022-10-17T15:31:14;3.17;;;1.17;;
64714;SDS011;51144;53.002;6.506;2022-10-17T15:33:42;3.75;;;1.17;;
64714;SDS011;51144;53.002;6.506;2022-10-17T15:38:48;7.93;;;1.45;;
64714;SDS011;51144;53.002;6.506;2022-10-17T15:41:16;22.52;;;1.77;;
64714;SDS011;51144;53.002;6.506;2022-10-17T15:43:42;6.50;;;1.23;;
64714;SDS011;51144;53.002;6.506;2022-10-17T15:46:11;3.97;;;1.23;;
64714;SDS011;51144;53.002;6.506;2022-10-17T15:48:39;4.38;;;1.30;;
64714;SDS011;51144;53.002;6.506;2022-10-17T15:51:05;4.18;;;0.63;;
64714;SDS011;51144;53.002;6.506;2022-10-17T15:53:31;1.70;;;0.82;;
64714;SDS011;51144;53.002;6.506;2022-10-17T15:55:57;3.88;;;2.78;;
64714;SDS011;51144;53.002;6.506;2022-10-17T15:58:23;3.25;;;1.02;;
64714;SDS011;51144;53.002;6.506;2022-10-17T16:00:52;5.85;;;1.27;;
64714;SDS011;51144;53.002;6.506;2022-10-17T16:03:18;6.07;;;1.35;;
64714;SDS011;51144;53.002;6.506;2022-10-17T16:05:43;2.88;;;1.10;;
64714;SDS011;51144;53.002;6.506;2022-10-17T16:08:09;2.63;;;1.13;;
64714;SDS011;51144;53.002;6.506;2022-10-17T16:10:38;2.63;;;1.55;;
64714;SDS011;51144;53.002;6.506;2022-10-17T16:13:04;7.72;;;1.48;;
64714;SDS011;51144;53.002;6.506;2022-10-17T16:15:30;14.18;;;2.72;;
64714;SDS011;51144;53.002;6.506;2022-10-17T16:17:55;18.67;;;3.15;;
64714;SDS011;51144;53.002;6.506;2022-10-17T16:20:22;11.40;;;2.20;;
64714;SDS011;51144;53.002;6.506;2022-10-17T16:22:48;6.07;;;2.08;;
64714;SDS011;51144;53.002;6.506;2022-10-17T16:25:16;2.97;;;1.95;;
64714;SDS011;51144;53.002;6.506;2022-10-17T16:27:43;3.58;;;1.45;;
64714;SDS011;51144;53.002;6.506;2022-10-17T16:30:12;3.45;;;1.20;;
64714;SDS011;51144;53.002;6.506;2022-10-17T16:32:38;3.65;;;1.60;;
64714;SDS011;51144;53.002;6.506;2022-10-17T16:35:04;5.20;;;1.90;;
64714;SDS011;51144;53.002;6.506;2022-10-17T16:37:31;4.05;;;1.55;;
64714;SDS011;51144;53.002;6.506;2022-10-17T16:39:56;7.47;;;1.40;;
64714;SDS011;51144;53.002;6.506;2022-10-17T16:42:22;3.90;;;1.80;;
64714;SDS011;51144;53.002;6.506;2022-10-17T16:44:48;4.05;;;2.20;;
64714;SDS011;51144;53.002;6.506;2022-10-17T16:47:15;6.20;;;2.00;;
64714;SDS011;51144;53.002;6.506;2022-10-17T16:49:41;2.75;;;2.30;;
64714;SDS011;51144;53.002;6.506;2022-10-17T16:52:07;6.25;;;2.75;;
64714;SDS011;51144;53.002;6.506;2022-10-17T16:54:33;5.22;;;2.67;;
64714;SDS011;51144;53.002;6.506;2022-10-17T16:57:01;5.05;;;3.38;;
64714;SDS011;51144;53.002;6.506;2022-10-17T16:59:27;3.50;;;3.20;;
64714;SDS011;51144;53.002;6.506;2022-10-17T17:01:53;4.95;;;3.33;;
64714;SDS011;51144;53.002;6.506;2022-10-17T17:04:19;9.98;;;4.72;;
64714;SDS011;51144;53.002;6.506;2022-10-17T17:06:45;6.45;;;4.30;;
64714;SDS011;51144;53.002;6.506;2022-10-17T17:09:10;6.85;;;5.00;;
64714;SDS011;51144;53.002;6.506;2022-10-17T17:11:36;9.63;;;6.05;;
64714;SDS011;51144;53.002;6.506;2022-10-17T17:14:02;8.68;;;5.93;;
64714;SDS011;51144;53.002;6.506;2022-10-17T17:16:29;8.70;;;5.43;;
64714;SDS011;51144;53.002;6.506;2022-10-17T17:19:01;6.25;;;5.53;;
64714;SDS011;51144;53.002;6.506;2022-10-17T17:21:31;9.68;;;5.70;;
64714;SDS011;51144;53.002;6.506;2022-10-17T17:23:58;6.38;;;5.63;;
64714;SDS011;51144;53.002;6.506;2022-10-17T17:26:26;12.10;;;5.57;;
64714;SDS011;51144;53.002;6.506;2022-10-17T17:28:53;10.10;;;6.35;;
64714;SDS011;51144;53.002;6.506;2022-10-17T17:31:21;10.13;;;6.32;;
64714;SDS011;51144;53.002;6.506;2022-10-17T17:33:49;12.02;;;6.82;;
64714;SDS011;51144;53.002;6.506;2022-10-17T17:36:17;8.43;;;6.47;;
64714;SDS011;51144;53.002;6.506;2022-10-17T17:38:44;7.50;;;6.70;;
64714;SDS011;51144;53.002;6.506;2022-10-17T17:41:11;8.23;;;7.50;;
64714;SDS011;51144;53.002;6.506;2022-10-17T17:43:38;9.30;;;6.95;;
64714;SDS011;51144;53.002;6.506;2022-10-17T17:46:04;9.40;;;8.00;;
64714;SDS011;51144;53.002;6.506;2022-10-17T17:48:30;10.43;;;8.27;;
64714;SDS011;51144;53.002;6.506;2022-10-17T17:50:56;12.23;;;8.88;;
64714;SDS011;51144;53.002;6.506;2022-10-17T17:53:26;9.93;;;8.02;;
64714;SDS011;51144;53.002;6.506;2022-10-17T17:56:02;10.70;;;9.30;;
64714;SDS011;51144;53.002;6.506;2022-10-17T17:58:29;13.45;;;8.32;;
64714;SDS011;51144;53.002;6.506;2022-10-17T18:00:55;10.32;;;9.30;;
64714;SDS011;51144;53.002;6.506;2022-10-17T18:03:21;11.00;;;9.68;;
64714;SDS011;51144;53.002;6.506;2022-10-17T18:05:47;11.45;;;10.25;;
64714;SDS011;51144;53.002;6.506;2022-10-17T18:08:13;12.02;;;10.82;;
64714;SDS011;51144;53.002;6.506;2022-10-17T18:10:38;12.43;;;11.18;;
64714;SDS011;51144;53.002;6.506;2022-10-17T18:13:04;11.20;;;10.13;;
64714;SDS011;51144;53.002;6.506;2022-10-17T18:15:30;17.05;;;11.23;;
64714;SDS011;51144;53.002;6.506;2022-10-17T18:17:55;14.18;;;11.32;;
64714;SDS011;51144;53.002;6.506;2022-10-17T18:20:21;13.57;;;11.30;;
64714;SDS011;51144;53.002;6.506;2022-10-17T18:22:46;14.10;;;11.90;;
64714;SDS011;51144;53.002;6.506;2022-10-17T18:25:12;14.10;;;11.60;;
64714;SDS011;51144;53.002;6.506;2022-10-17T18:27:38;16.15;;;14.05;;
64714;SDS011;51144;53.002;6.506;2022-10-17T18:30:03;16.27;;;12.70;;
64714;SDS011;51144;53.002;6.506;2022-10-17T18:32:30;17.33;;;12.60;;
64714;SDS011;51144;53.002;6.506;2022-10-17T18:34:56;18.45;;;14.05;;
64714;SDS011;51144;53.002;6.506;2022-10-17T18:37:21;19.17;;;14.55;;
64714;SDS011;51144;53.002;6.506;2022-10-17T18:39:47;18.00;;;15.50;;
64714;SDS011;51144;53.002;6.506;2022-10-17T18:42:16;20.65;;;15.30;;
64714;SDS011;51144;53.002;6.506;2022-10-17T18:44:42;23.15;;;15.65;;
64714;SDS011;51144;53.002;6.506;2022-10-17T18:47:08;19.23;;;15.90;;
64714;SDS011;51144;53.002;6.506;2022-10-17T18:49:34;20.63;;;16.38;;
64714;SDS011;51144;53.002;6.506;2022-10-17T18:52:00;20.33;;;15.45;;
64714;SDS011;51144;53.002;6.506;2022-10-17T18:54:26;22.38;;;18.13;;
64714;SDS011;51144;53.002;6.506;2022-10-17T18:56:53;23.02;;;16.23;;
64714;SDS011;51144;53.002;6.506;2022-10-17T18:59:19;23.25;;;16.90;;
64714;SDS011;51144;53.002;6.506;2022-10-17T19:01:46;26.20;;;16.92;;
64714;SDS011;51144;53.002;6.506;2022-10-17T19:04:12;20.80;;;16.45;;
64714;SDS011;51144;53.002;6.506;2022-10-17T19:06:38;24.15;;;16.52;;
64714;SDS011;51144;53.002;6.506;2022-10-17T19:09:05;22.90;;;17.15;;
64714;SDS011;51144;53.002;6.506;2022-10-17T19:11:32;31.30;;;16.95;;
64714;SDS011;51144;53.002;6.506;2022-10-17T19:14:01;26.23;;;17.27;;
64714;SDS011;51144;53.002;6.506;2022-10-17T19:16:29;24.27;;;18.25;;
64714;SDS011;51144;53.002;6.506;2022-10-17T19:19:01;26.67;;;18.15;;
64714;SDS011;51144;53.002;6.506;2022-10-17T19:21:32;25.88;;;17.67;;
64714;SDS011;51144;53.002;6.506;2022-10-17T19:23:59;26.50;;;17.70;;
64714;SDS011;51144;53.002;6.506;2022-10-17T19:26:30;25.02;;;17.27;;
64714;SDS011;51144;53.002;6.506;2022-10-17T19:28:57;26.20;;;18.50;;
64714;SDS011;51144;53.002;6.506;2022-10-17T19:31:24;24.08;;;18.40;;
64714;SDS011;51144;53.002;6.506;2022-10-17T19:33:51;26.00;;;18.55;;
64714;SDS011;51144;53.002;6.506;2022-10-17T19:36:18;24.42;;;19.45;;
64714;SDS011;51144;53.002;6.506;2022-10-17T19:38:45;30.73;;;19.42;;
64714;SDS011;51144;53.002;6.506;2022-10-17T19:41:12;29.42;;;21.42;;
64714;SDS011;51144;53.002;6.506;2022-10-17T19:43:39;45.20;;;21.98;;
64714;SDS011;51144;53.002;6.506;2022-10-17T19:46:09;58.20;;;23.88;;
64714;SDS011;51144;53.002;6.506;2022-10-17T19:48:36;56.25;;;23.15;;
64714;SDS011;51144;53.002;6.506;2022-10-17T19:51:02;60.58;;;24.33;;
64714;SDS011;51144;53.002;6.506;2022-10-17T19:53:29;26.40;;;19.92;;
64714;SDS011;51144;53.002;6.506;2022-10-17T19:55:55;40.25;;;23.25;;
64714;SDS011;51144;53.002;6.506;2022-10-17T19:58:22;51.50;;;25.17;;
64714;SDS011;51144;53.002;6.506;2022-10-17T20:00:50;35.40;;;25.25;;
64714;SDS011;51144;53.002;6.506;2022-10-17T20:03:18;34.78;;;24.83;;
64714;SDS011;51144;53.002;6.506;2022-10-17T20:05:44;39.10;;;26.40;;
64714;SDS011;51144;53.002;6.506;2022-10-17T20:08:10;43.10;;;27.80;;
64714;SDS011;51144;53.002;6.506;2022-10-17T20:10:36;45.72;;;30.13;;
64714;SDS011;51144;53.002;6.506;2022-10-17T20:13:02;50.65;;;28.90;;
64714;SDS011;51144;53.002;6.506;2022-10-17T20:15:27;53.50;;;29.13;;
64714;SDS011;51144;53.002;6.506;2022-10-17T20:17:53;46.90;;;29.02;;
64714;SDS011;51144;53.002;6.506;2022-10-17T20:20:20;125.40;;;38.90;;
64714;SDS011;51144;53.002;6.506;2022-10-17T20:22:45;44.58;;;27.55;;
64714;SDS011;51144;53.002;6.506;2022-10-17T20:25:11;44.22;;;28.38;;
64714;SDS011;51144;53.002;6.506;2022-10-17T20:27:36;39.92;;;28.27;;
64714;SDS011;51144;53.002;6.506;2022-10-17T20:30:02;48.83;;;27.13;;
64714;SDS011;51144;53.002;6.506;2022-10-17T20:32:29;47.38;;;29.35;;
64714;SDS011;51144;53.002;6.506;2022-10-17T20:34:56;55.08;;;31.15;;
64714;SDS011;51144;53.002;6.506;2022-10-17T20:37:22;45.22;;;31.13;;
64714;SDS011;51144;53.002;6.506;2022-10-17T20:39:48;47.20;;;31.20;;
64714;SDS011;51144;53.002;6.506;2022-10-17T20:42:13;51.28;;;30.90;;
64714;SDS011;51144;53.002;6.506;2022-10-17T20:44:39;53.30;;;31.88;;
64714;SDS011;51144;53.002;6.506;2022-10-17T20:47:05;44.85;;;30.13;;
64714;SDS011;51144;53.002;6.506;2022-10-17T20:49:31;58.13;;;33.25;;
64714;SDS011;51144;53.002;6.506;2022-10-17T20:51:57;58.50;;;32.20;;
64714;SDS011;51144;53.002;6.506;2022-10-17T20:54:24;50.33;;;29.65;;
64714;SDS011;51144;53.002;6.506;2022-10-17T20:56:52;66.43;;;33.42;;
64714;SDS011;51144;53.002;6.506;2022-10-17T20:59:18;76.60;;;33.80;;
64714;SDS011;51144;53.002;6.506;2022-10-17T21:01:44;64.13;;;32.85;;
64714;SDS011;51144;53.002;6.506;2022-10-17T21:04:10;95.63;;;36.53;;
64714;SDS011;51144;53.002;6.506;2022-10-17T21:06:36;69.25;;;33.58;;
64714;SDS011;51144;53.002;6.506;2022-10-17T21:09:02;53.25;;;29.58;;
64714;SDS011;51144;53.002;6.506;2022-10-17T21:11:29;53.63;;;30.00;;
64714;SDS011;51144;53.002;6.506;2022-10-17T21:13:59;57.10;;;31.75;;
64714;SDS011;51144;53.002;6.506;2022-10-17T21:16:30;62.28;;;32.90;;
64714;SDS011;51144;53.002;6.506;2022-10-17T21:18:57;61.85;;;32.55;;
64714;SDS011;51144;53.002;6.506;2022-10-17T21:21:24;117.53;;;37.78;;
64714;SDS011;51144;53.002;6.506;2022-10-17T21:23:53;65.70;;;33.17;;
64714;SDS011;51144;53.002;6.506;2022-10-17T21:26:20;122.68;;;39.92;;
64714;SDS011;51144;53.002;6.506;2022-10-17T21:28:46;85.35;;;37.30;;
64714;SDS011;51144;53.002;6.506;2022-10-17T21:31:14;90.03;;;36.53;;
64714;SDS011;51144;53.002;6.506;2022-10-17T21:33:42;74.07;;;34.53;;
64714;SDS011;51144;53.002;6.506;2022-10-17T21:36:09;58.08;;;33.42;;